Terminal Aerodrome Forecast
Issued by NWS

Current Version | Previous Version | Text Only | Print | Product List | Glossary On
Versions: 1 2 3 4 5 6 7 8 9 10 11 12
498
FTUS43 KGRB 140520
TAFATW
TAF
KATW 140520Z 1406/1506 00000KT P6SM SCT250
     FM141100 15003KT P6SM BKN250
     FM141600 16007KT P6SM -SN BKN025 BKN100
     FM142100 15011KT 5SM -SN BKN020 OVC040
     FM150000 14010KT 2SM -SN BKN016 OVC025=

USA.gov is the U.S. government's official web portal to all federal, state and local government web resources and services.